createdAt,value
2024-02-02T00:01:56.508Z,18.20
2024-02-02T00:04:22.950Z,17.43
2024-02-02T00:06:49.758Z,23.95
2024-02-02T00:09:16.411Z,24.27
2024-02-02T00:11:42.943Z,16.13
2024-02-02T00:14:09.502Z,23.00
2024-02-02T00:16:36.789Z,17.97
2024-02-02T00:19:03.349Z,22.63
2024-02-02T00:21:29.849Z,15.57
2024-02-02T00:23:56.263Z,19.70
2024-02-02T00:26:22.656Z,14.85
2024-02-02T00:28:49.088Z,24.17
2024-02-02T00:31:15.576Z,24.00
2024-02-02T00:33:42.044Z,21.92
2024-02-02T00:36:08.778Z,22.40
2024-02-02T00:38:35.167Z,20.92
2024-02-02T00:41:01.559Z,21.73
2024-02-02T00:43:27.980Z,16.13
2024-02-02T00:45:54.346Z,21.70
2024-02-02T00:48:21.812Z,22.10
2024-02-02T00:50:48.346Z,16.08
2024-02-02T00:53:16.072Z,25.10
2024-02-02T00:55:45.150Z,22.35
2024-02-02T00:58:11.614Z,27.67
2024-02-02T01:00:38.109Z,17.63
2024-02-02T01:03:04.973Z,21.73
2024-02-02T01:05:31.450Z,19.50
2024-02-02T01:07:57.910Z,20.65
2024-02-02T01:10:24.297Z,17.40
2024-02-02T01:12:50.817Z,22.83
2024-02-02T01:15:17.314Z,14.07
2024-02-02T01:17:43.740Z,19.57
2024-02-02T01:20:10.445Z,16.95
2024-02-02T01:22:36.821Z,23.75
2024-02-02T01:25:03.298Z,23.10
2024-02-02T01:27:29.785Z,26.52
2024-02-02T01:29:57.467Z,30.07
2024-02-02T01:32:23.840Z,21.00
2024-02-02T01:34:51.177Z,23.75
2024-02-02T01:37:17.920Z,22.30
2024-02-02T01:39:44.326Z,29.90
2024-02-02T01:42:10.752Z,23.90
2024-02-02T01:44:38.105Z,19.23
2024-02-02T01:47:04.711Z,21.58
2024-02-02T01:49:31.417Z,22.60
2024-02-02T01:51:58.073Z,19.48
2024-02-02T01:54:24.464Z,16.87
2024-02-02T01:56:53.119Z,22.77
2024-02-02T01:59:19.620Z,19.38
2024-02-02T02:01:46.028Z,24.10
2024-02-02T02:04:13.008Z,21.30
2024-02-02T02:06:42.549Z,25.67
2024-02-02T02:09:09.103Z,22.92
2024-02-02T02:11:35.604Z,14.38
2024-02-02T02:14:02.408Z,20.00
2024-02-02T02:16:28.994Z,17.67
2024-02-02T02:19:02.614Z,20.43
2024-02-02T02:21:31.069Z,23.60
2024-02-02T02:23:57.742Z,20.58
2024-02-02T02:26:24.276Z,28.15
2024-02-02T02:28:50.633Z,23.65
2024-02-02T02:31:18.457Z,17.67
2024-02-02T02:33:45.528Z,20.83
2024-02-02T02:36:15.382Z,21.77
2024-02-02T02:38:43.127Z,19.42
2024-02-02T02:41:09.621Z,21.40
2024-02-02T02:43:36.938Z,18.10
2024-02-02T02:46:03.460Z,21.92
2024-02-02T02:48:30.707Z,19.52
2024-02-02T02:50:57.204Z,22.67
2024-02-02T02:53:23.643Z,21.48
2024-02-02T02:55:50.057Z,20.27
2024-02-02T02:58:16.494Z,22.30
2024-02-02T03:00:44.165Z,16.08
2024-02-02T03:03:10.731Z,21.15
2024-02-02T03:05:37.344Z,21.15
2024-02-02T03:08:04.039Z,16.33
2024-02-02T03:10:31.665Z,19.80
2024-02-02T03:12:58.007Z,16.15
2024-02-02T03:15:24.690Z,15.85
2024-02-02T03:17:51.235Z,21.95
2024-02-02T03:20:17.816Z,16.90
2024-02-02T03:22:44.528Z,19.27
2024-02-02T03:25:11.010Z,15.80
2024-02-02T03:27:37.467Z,23.15
2024-02-02T03:30:04.411Z,24.73
2024-02-02T03:32:31.039Z,24.65
2024-02-02T03:34:57.449Z,23.10
2024-02-02T03:37:23.879Z,17.92
2024-02-02T03:39:50.371Z,21.80
2024-02-02T03:42:16.958Z,18.58
2024-02-02T03:44:43.425Z,13.93
2024-02-02T03:47:10.100Z,16.42
2024-02-02T03:49:36.883Z,24.90
2024-02-02T03:52:03.502Z,23.90
2024-02-02T03:54:29.962Z,19.75
2024-02-02T03:56:56.459Z,16.67
2024-02-02T03:59:22.899Z,19.50
2024-02-02T04:01:49.342Z,18.65
2024-02-02T04:04:16.063Z,15.57
2024-02-02T04:06:42.702Z,16.90
2024-02-02T04:09:09.169Z,27.00
2024-02-02T04:11:36.475Z,24.35
2024-02-02T04:14:02.841Z,22.17
2024-02-02T04:16:29.671Z,14.50
2024-02-02T04:18:56.314Z,15.55
2024-02-02T04:21:22.853Z,13.43
2024-02-02T04:23:49.300Z,24.52
2024-02-02T04:26:15.752Z,18.33
2024-02-02T04:28:42.211Z,16.02
2024-02-02T04:31:09.670Z,17.23
2024-02-02T04:33:36.183Z,13.47
2024-02-02T04:36:02.687Z,17.10
2024-02-02T04:38:29.232Z,20.58
2024-02-02T04:40:55.642Z,14.40
2024-02-02T04:43:22.117Z,23.77
2024-02-02T04:45:48.786Z,16.70
2024-02-02T04:48:15.332Z,21.13
2024-02-02T04:50:41.917Z,15.40
2024-02-02T04:53:08.289Z,25.77
2024-02-02T04:55:34.690Z,15.45
2024-02-02T04:58:01.105Z,12.27
2024-02-02T05:00:27.484Z,19.45
2024-02-02T05:02:55.179Z,18.60
2024-02-02T05:05:21.598Z,23.60
2024-02-02T05:07:48.063Z,21.92
2024-02-02T05:10:15.388Z,14.33
2024-02-02T05:12:42.454Z,14.75
2024-02-02T05:15:09.382Z,12.20
2024-02-02T05:17:35.894Z,12.13
2024-02-02T05:20:02.611Z,25.40
2024-02-02T05:22:28.998Z,16.48
2024-02-02T05:24:55.545Z,15.25
2024-02-02T05:27:23.430Z,17.30
2024-02-02T05:29:49.856Z,15.88
2024-02-02T05:32:16.880Z,14.88
2024-02-02T05:34:43.800Z,14.97
2024-02-02T05:37:10.933Z,15.23
2024-02-02T05:39:37.485Z,12.93
2024-02-02T05:42:04.535Z,22.17
2024-02-02T05:44:30.965Z,15.82
2024-02-02T05:46:57.388Z,17.20
2024-02-02T05:49:24.158Z,15.13
2024-02-02T05:51:51.811Z,20.85
2024-02-02T05:54:18.504Z,16.17
2024-02-02T05:56:44.925Z,16.08
2024-02-02T05:59:11.279Z,13.83
2024-02-02T06:01:37.700Z,19.33
2024-02-02T06:04:04.527Z,18.02
2024-02-02T06:06:31.025Z,14.68
2024-02-02T06:09:00.472Z,10.95
2024-02-02T06:11:27.381Z,11.20
2024-02-02T06:13:53.747Z,13.70
2024-02-02T06:16:20.644Z,12.13
2024-02-02T06:18:47.108Z,19.17
2024-02-02T06:21:13.534Z,12.25
2024-02-02T06:23:39.918Z,16.93
2024-02-02T06:26:06.291Z,15.20
2024-02-02T06:28:32.671Z,16.20
2024-02-02T06:30:59.118Z,16.00
2024-02-02T06:33:25.713Z,17.83
2024-02-02T06:35:52.302Z,15.47
2024-02-02T06:38:18.804Z,21.17
2024-02-02T06:40:45.242Z,21.88
2024-02-02T06:43:11.656Z,16.38
2024-02-02T06:45:39.580Z,14.48
2024-02-02T06:48:07.659Z,17.77
2024-02-02T06:50:34.125Z,21.80
2024-02-02T06:53:01.113Z,22.60
2024-02-02T06:55:27.830Z,27.25
2024-02-02T06:57:54.278Z,20.00
2024-02-02T07:00:20.790Z,30.20
2024-02-02T07:02:48.328Z,18.23
2024-02-02T07:05:15.671Z,23.90
2024-02-02T07:07:42.720Z,19.88
2024-02-02T07:10:16.695Z,21.45
2024-02-02T07:12:58.209Z,14.60
2024-02-02T07:15:28.164Z,11.15
2024-02-02T07:17:54.812Z,15.80
2024-02-02T07:20:24.454Z,17.38
2024-02-02T07:23:01.706Z,18.92
2024-02-02T07:25:32.753Z,15.33
2024-02-02T07:28:08.014Z,19.50
2024-02-02T07:30:53.133Z,19.88
2024-02-02T07:33:22.488Z,23.00
2024-02-02T07:35:49.074Z,13.73
2024-02-02T07:38:51.573Z,18.70
2024-02-02T07:41:19.675Z,18.25
2024-02-02T07:43:46.531Z,17.05
2024-02-02T07:46:15.909Z,25.98
2024-02-02T07:48:43.305Z,23.83
2024-02-02T07:51:09.977Z,20.60
2024-02-02T07:53:36.663Z,25.02
2024-02-02T07:56:03.495Z,25.98
2024-02-02T07:58:30.133Z,21.23
2024-02-02T08:00:57.016Z,21.92
2024-02-02T08:03:23.596Z,13.77
2024-02-02T08:05:50.055Z,20.60
2024-02-02T08:08:16.506Z,16.42
2024-02-02T08:10:43.605Z,19.08
2024-02-02T08:13:14.207Z,19.23
2024-02-02T08:15:40.979Z,20.88
2024-02-02T08:18:08.813Z,22.88
2024-02-02T08:20:35.936Z,18.67
2024-02-02T08:23:02.658Z,21.00
2024-02-02T08:25:30.583Z,26.08
2024-02-02T08:27:57.429Z,18.52
2024-02-02T08:30:24.280Z,21.40
2024-02-02T08:32:51.469Z,14.18
2024-02-02T08:35:21.730Z,21.50
2024-02-02T08:37:50.461Z,22.77
2024-02-02T08:40:25.764Z,21.17
2024-02-02T08:42:52.645Z,19.90
2024-02-02T08:46:08.322Z,19.27
2024-02-02T08:48:44.488Z,22.27
2024-02-02T08:51:23.330Z,18.50
2024-02-02T08:53:51.810Z,19.17
2024-02-02T08:56:18.244Z,26.55
2024-02-02T08:58:44.637Z,14.63
2024-02-02T09:01:40.140Z,15.85
2024-02-02T09:04:07.024Z,30.80
2024-02-02T09:06:44.568Z,20.53
2024-02-02T09:09:14.071Z,23.58
2024-02-02T09:11:40.564Z,20.50
2024-02-02T09:14:10.159Z,18.67
2024-02-02T09:16:43.661Z,22.35
2024-02-02T09:19:28.429Z,17.40
2024-02-02T09:21:57.214Z,27.63
2024-02-02T09:24:28.042Z,29.60
2024-02-02T09:26:56.132Z,29.15
2024-02-02T09:29:22.610Z,20.70
2024-02-02T09:31:49.066Z,23.33
2024-02-02T09:34:19.867Z,25.45
2024-02-02T09:36:46.402Z,19.40
2024-02-02T09:39:18.959Z,24.42
2024-02-02T09:42:07.072Z,24.25
2024-02-02T09:44:51.522Z,19.30
2024-02-02T09:47:17.909Z,25.77
2024-02-02T09:49:48.467Z,30.23
2024-02-02T09:52:35.054Z,31.90
2024-02-02T09:55:05.100Z,28.10
2024-02-02T09:57:59.774Z,32.57
2024-02-02T10:01:00.849Z,32.47
2024-02-02T10:03:47.204Z,24.48
2024-02-02T10:06:33.067Z,32.75
2024-02-02T10:09:24.345Z,29.13
2024-02-02T10:12:11.014Z,31.90
2024-02-02T10:15:04.368Z,28.88
2024-02-02T10:17:37.952Z,25.55
2024-02-02T10:20:30.300Z,30.83
2024-02-02T10:23:31.986Z,36.10
2024-02-02T10:26:23.614Z,23.27
2024-02-02T10:28:55.797Z,36.70
2024-02-02T10:31:38.413Z,29.05
2024-02-02T10:34:16.466Z,25.98
2024-02-02T10:37:04.668Z,31.15
2024-02-02T10:39:52.416Z,37.03
2024-02-02T10:42:40.364Z,29.50
2024-02-02T10:45:30.680Z,32.78
2024-02-02T10:48:36.047Z,28.75
2024-02-02T10:51:32.932Z,34.25
2024-02-02T10:54:28.940Z,30.67
2024-02-02T10:57:04.221Z,32.50
2024-02-02T10:59:47.347Z,40.85
2024-02-02T11:02:44.252Z,51.78
2024-02-02T11:05:35.970Z,46.70
2024-02-02T11:08:05.330Z,30.90
2024-02-02T11:11:00.147Z,32.90
2024-02-02T11:13:38.762Z,34.95
2024-02-02T11:16:32.374Z,34.88
2024-02-02T11:19:04.606Z,51.75
2024-02-02T11:22:22.588Z,40.97
2024-02-02T11:25:39.393Z,49.90
2024-02-02T11:28:14.793Z,38.40
2024-02-02T11:30:59.856Z,36.30
2024-02-02T11:33:42.504Z,39.90
2024-02-02T11:36:25.743Z,37.87
2024-02-02T11:39:20.143Z,40.83
2024-02-02T11:41:47.341Z,43.00
2024-02-02T11:44:15.271Z,30.13
2024-02-02T11:46:44.499Z,38.33
2024-02-02T11:49:16.712Z,33.83
2024-02-02T11:51:50.341Z,41.75
2024-02-02T11:54:22.698Z,36.10
2024-02-02T11:56:51.611Z,49.00
2024-02-02T11:59:32.489Z,33.30
2024-02-02T12:02:16.334Z,41.43
2024-02-02T12:05:15.413Z,31.08
2024-02-02T12:08:08.182Z,34.25
2024-02-02T12:10:41.158Z,36.33
2024-02-02T12:13:12.161Z,33.10
2024-02-02T12:15:38.663Z,24.87
2024-02-02T12:18:05.588Z,29.23
2024-02-02T12:20:32.385Z,30.63
2024-02-02T12:22:59.392Z,31.35
2024-02-02T12:25:26.073Z,33.10
2024-02-02T12:27:53.879Z,33.47
2024-02-02T12:30:20.492Z,35.78
2024-02-02T12:32:55.447Z,27.90
2024-02-02T12:35:26.431Z,31.73
2024-02-02T12:37:53.384Z,29.33
2024-02-02T12:40:20.740Z,28.00
2024-02-02T12:42:49.828Z,29.17
2024-02-02T12:45:19.524Z,27.33
2024-02-02T12:47:46.297Z,30.15
2024-02-02T12:50:14.732Z,26.88
2024-02-02T12:52:42.911Z,25.87
2024-02-02T12:55:09.546Z,26.88
2024-02-02T12:57:36.604Z,23.58
2024-02-02T13:00:04.990Z,24.23
2024-02-02T13:02:32.081Z,22.10
2024-02-02T13:04:59.826Z,21.23
2024-02-02T13:07:26.460Z,22.75
2024-02-02T13:09:52.890Z,28.73
2024-02-02T13:12:29.762Z,31.05
2024-02-02T13:15:16.965Z,29.75
2024-02-02T13:17:43.485Z,23.27
2024-02-02T13:20:16.871Z,24.23
2024-02-02T13:22:46.914Z,27.05
2024-02-02T13:25:13.380Z,29.27
2024-02-02T13:27:42.150Z,24.30
2024-02-02T13:30:08.854Z,17.48
2024-02-02T13:32:37.372Z,24.85
2024-02-02T13:35:05.286Z,22.92
2024-02-02T13:37:32.180Z,24.08
2024-02-02T13:39:59.797Z,23.70
2024-02-02T13:42:27.046Z,25.50
2024-02-02T13:44:53.732Z,30.40
2024-02-02T13:47:21.461Z,27.52
2024-02-02T13:49:48.668Z,25.90
2024-02-02T13:52:15.158Z,27.58
2024-02-02T13:54:41.751Z,23.07
2024-02-02T13:57:08.296Z,34.92
2024-02-02T13:59:34.806Z,22.92
2024-02-02T14:02:08.586Z,23.45
2024-02-02T14:04:35.066Z,25.33
2024-02-02T14:07:01.873Z,30.03
2024-02-02T14:09:29.054Z,21.95
2024-02-02T14:12:02.608Z,24.27
2024-02-02T14:14:29.149Z,24.48
2024-02-02T14:17:07.847Z,22.38
2024-02-02T14:19:34.696Z,23.77
2024-02-02T14:22:10.174Z,19.95
2024-02-02T14:24:48.714Z,26.15
2024-02-02T14:27:15.258Z,26.02
2024-02-02T14:29:43.803Z,28.05
2024-02-02T14:32:10.549Z,31.17
2024-02-02T14:34:37.905Z,29.77
2024-02-02T14:37:04.658Z,29.58
2024-02-02T14:39:32.006Z,27.25
2024-02-02T14:41:59.937Z,23.92
2024-02-02T14:44:28.488Z,33.22
2024-02-02T14:46:54.961Z,21.55
2024-02-02T14:49:21.483Z,24.70
2024-02-02T14:51:47.915Z,27.15
2024-02-02T14:54:14.354Z,29.83
2024-02-02T14:56:40.790Z,23.33
2024-02-02T14:59:07.267Z,21.80
2024-02-02T15:01:37.380Z,27.23
2024-02-02T15:04:04.997Z,20.38
2024-02-02T15:06:33.415Z,25.25
2024-02-02T15:09:00.644Z,16.98
2024-02-02T15:11:28.204Z,22.10
2024-02-02T15:13:55.599Z,25.38
2024-02-02T15:16:22.017Z,25.77
2024-02-02T15:18:48.525Z,29.83
2024-02-02T15:21:15.000Z,34.72
2024-02-02T15:23:43.976Z,25.98
2024-02-02T15:26:10.348Z,26.20
2024-02-02T15:28:36.691Z,28.33
2024-02-02T15:31:03.253Z,26.20
2024-02-02T15:33:29.723Z,28.23
2024-02-02T15:35:56.203Z,40.75
2024-02-02T15:38:22.651Z,33.45
2024-02-02T15:40:49.065Z,29.00
2024-02-02T15:43:15.578Z,32.45
2024-02-02T15:45:42.005Z,21.77
2024-02-02T15:48:08.768Z,31.83
2024-02-02T15:50:35.273Z,27.48
2024-02-02T15:53:02.615Z,32.97
2024-02-02T15:55:29.428Z,30.95
2024-02-02T15:57:56.673Z,35.70
2024-02-02T16:00:23.190Z,22.95
2024-02-02T16:02:50.205Z,33.78
2024-02-02T16:05:20.168Z,30.48
2024-02-02T16:07:46.661Z,28.20
2024-02-02T16:10:14.529Z,37.92
2024-02-02T16:12:41.147Z,26.17
2024-02-02T16:15:09.259Z,30.33
2024-02-02T16:17:39.771Z,31.42
2024-02-02T16:20:07.902Z,34.22
2024-02-02T16:22:34.310Z,30.13
2024-02-02T16:25:00.702Z,24.17
2024-02-02T16:27:27.208Z,27.65
2024-02-02T16:29:53.737Z,34.13
2024-02-02T16:32:20.093Z,31.33
2024-02-02T16:34:49.491Z,32.58
2024-02-02T16:37:16.020Z,27.58
2024-02-02T16:39:44.044Z,32.90
2024-02-02T16:42:11.106Z,28.40
2024-02-02T16:44:37.780Z,31.40
2024-02-02T16:47:04.265Z,36.88
2024-02-02T16:49:31.514Z,38.10
2024-02-02T16:51:58.549Z,30.23
2024-02-02T16:54:25.023Z,33.92
2024-02-02T16:56:51.505Z,40.97
2024-02-02T16:59:17.849Z,33.73
2024-02-02T17:01:44.266Z,34.55
2024-02-02T17:04:11.497Z,35.13
2024-02-02T17:06:41.217Z,36.35
2024-02-02T17:09:08.292Z,33.50
2024-02-02T17:11:34.829Z,35.03
2024-02-02T17:14:01.248Z,36.95
2024-02-02T17:16:27.652Z,31.55
2024-02-02T17:18:54.184Z,31.70
2024-02-02T17:21:21.518Z,34.30
2024-02-02T17:23:48.236Z,31.03
2024-02-02T17:26:16.100Z,30.85
2024-02-02T17:28:43.024Z,32.08
2024-02-02T17:31:13.510Z,39.88
2024-02-02T17:33:40.923Z,33.30
2024-02-02T17:36:25.397Z,34.80
2024-02-02T17:38:51.873Z,24.30
2024-02-02T17:41:18.310Z,28.63
2024-02-02T17:43:46.239Z,35.53
2024-02-02T17:46:16.559Z,31.15
2024-02-02T17:48:43.351Z,32.67
2024-02-02T17:51:10.746Z,30.23
2024-02-02T17:53:38.037Z,33.85
2024-02-02T17:56:06.913Z,33.47
2024-02-02T17:58:33.912Z,34.42
2024-02-02T18:01:00.840Z,33.45
2024-02-02T18:03:28.331Z,36.10
2024-02-02T18:05:55.102Z,36.53
2024-02-02T18:08:21.715Z,36.45
2024-02-02T18:10:48.238Z,35.53
2024-02-02T18:13:14.797Z,35.00
2024-02-02T18:15:41.231Z,32.03
2024-02-02T18:18:08.066Z,34.88
2024-02-02T18:20:34.541Z,34.33
2024-02-02T18:23:00.954Z,32.30
2024-02-02T18:25:27.363Z,31.10
2024-02-02T18:27:53.772Z,32.40
2024-02-02T18:30:20.221Z,32.10
2024-02-02T18:32:46.731Z,35.90
2024-02-02T18:35:13.088Z,26.38
2024-02-02T18:37:39.558Z,28.05
2024-02-02T18:40:06.461Z,30.83
2024-02-02T18:42:32.907Z,31.40
2024-02-02T18:44:59.850Z,30.25
2024-02-02T18:47:26.304Z,29.02
2024-02-02T18:49:52.899Z,30.95
2024-02-02T18:52:19.409Z,30.40
2024-02-02T18:54:48.993Z,27.52
2024-02-02T18:57:15.470Z,29.85
2024-02-02T18:59:41.952Z,26.25
2024-02-02T19:02:08.939Z,32.43
2024-02-02T19:04:37.219Z,29.98
2024-02-02T19:07:03.945Z,31.17
2024-02-02T19:09:30.460Z,31.70
2024-02-02T19:11:57.136Z,30.65
2024-02-02T19:14:23.657Z,32.20
2024-02-02T19:16:50.249Z,28.67
2024-02-02T19:19:16.928Z,29.17
2024-02-02T19:21:44.853Z,31.08
2024-02-02T19:24:11.279Z,30.63
2024-02-02T19:26:37.783Z,32.75
2024-02-02T19:29:04.272Z,33.28
2024-02-02T19:31:30.807Z,35.97
2024-02-02T19:33:57.395Z,26.63
2024-02-02T19:36:25.930Z,29.85
2024-02-02T19:38:53.208Z,32.25
2024-02-02T19:41:24.348Z,37.17
2024-02-02T19:43:51.570Z,29.40
2024-02-02T19:46:29.749Z,30.08
2024-02-02T19:48:57.939Z,33.30
2024-02-02T19:51:26.256Z,33.60
2024-02-02T19:53:53.194Z,31.38
2024-02-02T19:56:19.931Z,31.83
2024-02-02T19:58:46.879Z,31.08
2024-02-02T20:01:18.602Z,37.17
2024-02-02T20:03:46.930Z,34.03
2024-02-02T20:06:14.573Z,31.98
2024-02-02T20:08:42.386Z,34.20
2024-02-02T20:11:15.225Z,33.40
2024-02-02T20:13:42.554Z,31.58
2024-02-02T20:16:10.213Z,29.80
2024-02-02T20:18:36.758Z,37.08
2024-02-02T20:21:03.630Z,35.05
2024-02-02T20:23:30.164Z,40.13
2024-02-02T20:25:56.913Z,37.85
2024-02-02T20:28:23.380Z,41.20
2024-02-02T20:30:50.056Z,33.50
2024-02-02T20:33:16.682Z,38.70
2024-02-02T20:35:43.446Z,37.55
2024-02-02T20:38:09.943Z,37.47
2024-02-02T20:40:36.411Z,35.72
2024-02-02T20:43:02.797Z,37.83
2024-02-02T20:45:29.182Z,32.92
2024-02-02T20:47:56.426Z,31.42
2024-02-02T20:50:22.913Z,35.03
2024-02-02T20:52:50.201Z,34.00
2024-02-02T20:55:16.616Z,31.05
2024-02-02T20:57:43.741Z,37.80
2024-02-02T21:00:11.178Z,36.55
2024-02-02T21:02:44.062Z,35.67
2024-02-02T21:05:11.315Z,36.60
2024-02-02T21:07:38.784Z,33.30
2024-02-02T21:10:05.644Z,30.83
2024-02-02T21:12:32.146Z,42.63
2024-02-02T21:15:02.610Z,35.42
2024-02-02T21:17:29.249Z,34.70
2024-02-02T21:19:56.153Z,33.97
2024-02-02T21:22:22.541Z,42.60
2024-02-02T21:24:49.317Z,30.23
2024-02-02T21:27:15.835Z,33.30
2024-02-02T21:29:42.284Z,39.20
2024-02-02T21:32:08.705Z,31.98
2024-02-02T21:34:35.143Z,35.92
2024-02-02T21:37:01.631Z,40.35
2024-02-02T21:39:28.169Z,37.95
2024-02-02T21:41:54.623Z,42.95
2024-02-02T21:44:24.222Z,40.17
2024-02-02T21:46:51.093Z,45.63
2024-02-02T21:49:17.890Z,42.50
2024-02-02T21:51:44.545Z,51.03
2024-02-02T21:54:11.065Z,48.53
2024-02-02T21:56:42.483Z,39.05
2024-02-02T21:59:09.194Z,52.58
2024-02-02T22:01:37.110Z,52.22
2024-02-02T22:04:03.637Z,59.58
2024-02-02T22:06:30.244Z,55.97
2024-02-02T22:08:56.753Z,48.92
2024-02-02T22:11:24.765Z,55.28
2024-02-02T22:13:51.117Z,54.35
2024-02-02T22:16:17.574Z,50.80
2024-02-02T22:18:44.054Z,47.25
2024-02-02T22:21:10.632Z,44.78
2024-02-02T22:23:37.219Z,44.10
2024-02-02T22:26:04.404Z,43.03
2024-02-02T22:28:30.827Z,42.42
2024-02-02T22:30:57.536Z,40.35
2024-02-02T22:33:24.097Z,40.15
2024-02-02T22:35:50.501Z,41.55
2024-02-02T22:38:16.849Z,38.05
2024-02-02T22:40:43.214Z,39.72
2024-02-02T22:43:09.622Z,33.35
2024-02-02T22:45:36.087Z,28.88
2024-02-02T22:48:02.599Z,34.50
2024-02-02T22:50:29.595Z,29.20
2024-02-02T22:52:57.731Z,33.22
2024-02-02T22:55:24.154Z,30.27
2024-02-02T22:57:50.572Z,32.20
2024-02-02T23:00:17.286Z,27.90
2024-02-02T23:02:43.661Z,29.80
2024-02-02T23:05:10.036Z,30.15
2024-02-02T23:07:36.388Z,26.73
2024-02-02T23:10:02.893Z,24.70
2024-02-02T23:12:29.391Z,21.95
2024-02-02T23:14:55.837Z,21.45
2024-02-02T23:17:22.226Z,25.70
2024-02-02T23:19:48.685Z,22.25
2024-02-02T23:22:15.312Z,23.15
2024-02-02T23:24:41.784Z,26.85
2024-02-02T23:27:08.408Z,22.27
2024-02-02T23:29:34.852Z,21.15
2024-02-02T23:32:01.231Z,24.13
2024-02-02T23:34:27.741Z,25.75
2024-02-02T23:37:09.937Z,22.10
2024-02-02T23:39:45.571Z,24.05
2024-02-02T23:42:23.079Z,18.98
2024-02-02T23:45:00.662Z,19.83
2024-02-02T23:47:29.242Z,22.30
2024-02-02T23:50:00.152Z,20.23
2024-02-02T23:52:32.580Z,20.13
2024-02-02T23:55:36.883Z,14.90
2024-02-02T23:58:11.153Z,19.88
